< Typhoon 196530 1965 Season Typhoon 196532 >
Typhoon 196531 (ELAINE)
General InformationTrack Information on Google Maps || Disaster Info.ResourceGoogle EarthGE AnimationAtom FeedGeoJSON
Detalied Best Track (Time Zone = UTC)
Year Month Day Hour Lat. Long. Pressure (hPa) Wind (kt) Class Image Chart
1965 11 5 00 7.8 112.1 1008 0 2 -- Chart
1965 11 5 06 7.9 112.5 1008 0 2 -- Chart
1965 11 5 12 7.9 112.9 1008 0 2 -- Chart
1965 11 5 18 8.0 113.1 1008 0 2 -- Chart
1965 11 6 00 8.4 113.6 1008 0 2 -- Chart
1965 11 6 06 8.9 114.0 1007 0 2 -- Chart
1965 11 6 12 9.3 114.4 1007 0 2 -- Chart
1965 11 6 18 10.0 114.5 1006 0 2 -- Chart
1965 11 7 00 11.0 114.0 1006 0 2 -- Chart
1965 11 7 06 12.0 113.0 1006 0 2 -- Chart
1965 11 7 12 12.0 112.6 1007 0 2 -- Chart
1965 11 7 18 12.0 112.3 1004 0 2 -- Chart
1965 11 8 00 12.0 112.0 1006 0 2 -- Chart
1965 11 8 06 12.5 112.0 1002 0 2 -- Chart
1965 11 8 12 13.9 112.9 1004 0 2 -- Chart
1965 11 8 18 15.0 114.0 1004 0 2 -- Chart
1965 11 9 00 16.0 115.0 1002 0 2 -- Chart
1965 11 9 06 16.0 114.2 1000 0 2 -- Chart
1965 11 9 12 16.2 113.7 1000 0 2 -- Chart
1965 11 9 18 16.2 113.0 1000 0 2 -- Chart
1965 11 10 00 16.3 112.6 999 0 2 -- Chart
1965 11 10 06 16.5 112.7 998 0 9 -- Chart
1965 11 10 12 17.0 112.9 998 0 9 -- Chart
1965 11 10 18 17.4 112.9 998 0 9 -- Chart
1965 11 11 00 17.8 112.8 996 0 9 -- Chart
1965 11 11 06 18.5 112.5 996 0 9 -- Chart
1965 11 11 12 18.8 112.6 998 0 9 -- Chart
1965 11 11 18 19.0 112.3 998 0 9 -- Chart
1965 11 12 00 19.2 112.2 998 0 9 -- Chart
1965 11 12 06 19.5 112.0 998 0 9 -- Chart
1965 11 12 12 19.6 111.9 1000 0 9 -- Chart
1965 11 12 18 19.9 111.9 1004 0 9 -- Chart
1965 11 13 00 20.0 111.8 1008 0 2 -- Chart
1965 11 13 06 20.0 111.4 1010 0 2 -- Chart
1965 11 13 12 20.0 111.0 1012 0 2 -- Chart
Japan Meteorological Agency Best Track Data | Correction Date : 1989-06-01
< Typhoon 196530 1965 Season Typhoon 196532 >

Help